Terminal Aerodrome Forecast
Issued by NWS

Home | Current Version | Previous Version | Graphics & Text | Print | Product List | Glossary On
Versions: 1 2 3 4 5 6 7 8 9 10 11 12 13 14 15 16 17 18 19 20 21 22
000
FTUS43 KOAX 221722
TAFCDR
TAF
KCDR 221722Z 2218/2318 30017G26KT P6SM SCT110
     FM230200 33020G30KT 3SM -SN BKN020 OVC030=

USA.gov is the U.S. government's official web portal to all federal, state and local government web resources and services.